Time;durP1;ratioP1;P1;durP2;ratioP2;P2;SDS_P1;SDS_P2;PMS_P1;PMS_P2;Temp;Humidity;BMP_temperature;BMP_pressure;BME280_temperature;BME280_humidity;BME280_pressure;Samples;Min_cycle;Max_cycle;Signal;HPM_P1;HPM_P2
2022/07/23 00:00:15;;;;;;;14.45;8.25;;;25.40;94.30;;;;;;5003849;28;20038;-84
2022/07/23 00:02:41;;;;;;;21.92;8.43;;;25.40;94.60;;;;;;4988757;28;20113;-84
2022/07/23 00:05:07;;;;;;;20.23;8.73;;;25.40;94.50;;;;;;5004249;28;20085;-84
2022/07/23 00:07:33;;;;;;;14.68;8.52;;;25.40;94.70;;;;;;5002968;28;20026;-84
2022/07/23 00:09:59;;;;;;;10.25;7.82;;;25.40;94.80;;;;;;5002125;28;20030;-84
2022/07/23 00:12:25;;;;;;;12.10;8.50;;;25.30;94.90;;;;;;5009092;28;20037;-84
2022/07/23 00:14:51;;;;;;;14.80;8.48;;;25.30;95.00;;;;;;5017217;28;20446;-82
2022/07/23 00:17:17;;;;;;;11.98;8.07;;;25.30;95.10;;;;;;5014955;28;20070;-85
2022/07/23 00:19:43;;;;;;;18.95;8.20;;;25.30;95.00;;;;;;5014368;28;20065;-84
2022/07/23 00:22:09;;;;;;;13.68;8.20;;;25.30;95.00;;;;;;5015335;28;20034;-84
2022/07/23 00:24:34;;;;;;;14.25;8.75;;;25.30;95.10;;;;;;5006279;28;20097;-86
2022/07/23 00:27:00;;;;;;;12.73;8.52;;;25.30;95.20;;;;;;5004020;28;20073;-85
2022/07/23 00:29:26;;;;;;;12.43;7.90;;;25.30;95.30;;;;;;4987050;28;20045;-86
2022/07/23 00:31:52;;;;;;;15.98;8.32;;;25.20;95.20;;;;;;5003806;28;20082;-85
2022/07/23 00:34:18;;;;;;;11.75;8.30;;;25.20;95.10;;;;;;5005510;28;20022;-85
2022/07/23 00:36:44;;;;;;;12.13;8.43;;;25.20;95.20;;;;;;5007685;28;20033;-82
2022/07/23 00:39:09;;;;;;;16.88;8.63;;;25.20;95.20;;;;;;5017534;28;20022;-83
2022/07/23 00:41:35;;;;;;;19.23;8.23;;;25.20;95.20;;;;;;5001486;28;20014;-82
2022/07/23 00:44:22;;;;;;;18.33;8.52;;;25.20;95.30;;;;;;5017737;28;20022;-82
2022/07/23 00:46:52;;;;;;;14.52;8.20;;;25.20;95.40;;;;;;5017871;28;20033;-84
2022/07/23 00:49:20;;;;;;;15.98;7.88;;;25.10;95.50;;;;;;5017631;28;20018;-82
2022/07/23 00:51:46;;;;;;;14.88;8.30;;;25.20;95.70;;;;;;5018474;28;20011;-82
2022/07/23 00:54:12;;;;;;;14.95;8.63;;;25.10;95.70;;;;;;5017593;28;20038;-84
2022/07/23 00:56:39;;;;;;;12.55;8.27;;;25.00;95.40;;;;;;5018327;28;20021;-85
2022/07/23 00:59:07;;;;;;;16.95;8.23;;;25.00;95.70;;;;;;5012644;28;20042;-85
2022/07/23 01:01:33;;;;;;;13.98;8.02;;;25.00;95.50;;;;;;5017951;28;20031;-82
2022/07/23 01:03:59;;;;;;;11.63;7.97;;;25.00;95.20;;;;;;5017033;28;20065;-83
2022/07/23 01:06:25;;;;;;;11.02;7.72;;;25.00;95.80;;;;;;5017965;28;20014;-81
2022/07/23 01:08:51;;;;;;;14.00;8.45;;;25.00;95.50;;;;;;5017663;28;20082;-83
2022/07/23 01:11:19;;;;;;;11.60;7.97;;;25.00;95.90;;;;;;5016192;28;20030;-85
2022/07/23 01:13:45;;;;;;;11.60;7.68;;;25.00;96.00;;;;;;5015566;28;20046;-82
2022/07/23 01:16:11;;;;;;;17.08;7.97;;;25.10;95.70;;;;;;5014963;28;20030;-82
2022/07/23 01:18:37;;;;;;;11.18;7.88;;;25.10;95.50;;;;;;4999954;28;20023;-83
2022/07/23 01:21:03;;;;;;;10.85;7.65;;;25.10;94.50;;;;;;5000171;28;20090;-82
2022/07/23 01:23:29;;;;;;;15.10;7.78;;;25.10;94.30;;;;;;5016204;28;20039;-83
2022/07/23 01:25:57;;;;;;;11.45;7.47;;;25.10;94.40;;;;;;5015933;28;20418;-81
2022/07/23 01:28:25;;;;;;;11.65;7.78;;;25.00;94.30;;;;;;5015900;28;20069;-82
2022/07/23 01:30:51;;;;;;;12.13;8.30;;;25.10;94.60;;;;;;5015960;28;20014;-84
2022/07/23 01:33:17;;;;;;;14.10;8.82;;;25.10;94.40;;;;;;5008857;28;20079;-85
2022/07/23 01:35:43;;;;;;;11.68;7.85;;;25.20;94.30;;;;;;5005542;28;20042;-82
2022/07/23 01:38:12;;;;;;;14.68;8.07;;;25.20;94.10;;;;;;5004744;28;20027;-85
2022/07/23 01:40:39;;;;;;;14.68;7.80;;;25.20;93.80;;;;;;5005650;28;20026;-84
2022/07/23 01:43:05;;;;;;;12.73;7.88;;;25.30;93.30;;;;;;5006274;28;20041;-84
2022/07/23 01:45:33;;;;;;;11.13;7.28;;;25.40;93.20;;;;;;5003246;28;20065;-84
2022/07/23 01:47:59;;;;;;;10.68;7.30;;;25.40;93.40;;;;;;5003337;28;20034;-82
2022/07/23 01:50:25;;;;;;;14.15;7.88;;;25.50;93.70;;;;;;4986565;28;20041;-85
2022/07/23 01:53:10;;;;;;;16.67;7.95;;;25.50;93.80;;;;;;5006950;28;20053;-83
2022/07/23 01:55:36;;;;;;;22.98;7.97;;;25.50;94.00;;;;;;4990790;28;20031;-84
2022/07/23 01:58:03;;;;;;;12.50;8.25;;;25.60;94.30;;;;;;4997969;28;20014;-83
2022/07/23 02:00:30;;;;;;;22.52;8.75;;;25.60;94.00;;;;;;5015485;28;20019;-82
2022/07/23 02:02:58;;;;;;;15.60;9.48;;;25.70;94.40;;;;;;5013028;28;20035;-82
2022/07/23 02:05:25;;;;;;;17.83;9.68;;;25.70;94.90;;;;;;5013277;28;20014;-83
2022/07/23 02:07:51;;;;;;;12.90;8.48;;;25.60;95.20;;;;;;5015050;28;20035;-82
2022/07/23 02:10:18;;;;;;;14.73;9.05;;;25.70;95.50;;;;;;5014861;28;20046;-83
2022/07/23 02:12:44;;;;;;;16.42;9.63;;;25.60;95.60;;;;;;5014428;28;20030;-84
2022/07/23 02:15:10;;;;;;;14.50;8.98;;;25.60;95.70;;;;;;5017587;28;20023;-82
2022/07/23 02:17:36;;;;;;;13.50;9.38;;;25.60;95.60;;;;;;5002316;28;20102;-83
2022/07/23 02:20:03;;;;;;;23.30;9.95;;;25.60;95.60;;;;;;5018982;28;20027;-84
2022/07/23 02:22:29;;;;;;;23.73;9.25;;;25.50;95.60;;;;;;5020441;28;20030;-83
2022/07/23 02:24:54;;;;;;;10.90;8.55;;;25.50;95.70;;;;;;5019295;28;20027;-82
2022/07/23 02:27:21;;;;;;;11.70;9.38;;;25.50;95.80;;;;;;5019138;28;20034;-82
2022/07/23 02:29:47;;;;;;;11.82;8.80;;;25.40;95.90;;;;;;5021016;28;20026;-83
2022/07/23 02:32:13;;;;;;;13.15;8.90;;;25.40;96.10;;;;;;5003988;28;20042;-81
2022/07/23 02:34:39;;;;;;;12.77;8.30;;;25.40;96.30;;;;;;5019954;28;20049;-82
2022/07/23 02:37:05;;;;;;;10.60;8.57;;;25.40;96.40;;;;;;5019984;28;20205;-81
2022/07/23 02:39:32;;;;;;;12.98;8.85;;;25.40;96.40;;;;;;5020245;28;20018;-82
2022/07/23 02:41:58;;;;;;;11.32;8.63;;;25.40;96.50;;;;;;5020643;28;20042;-83
2022/07/23 02:44:26;;;;;;;13.90;9.40;;;25.40;96.50;;;;;;5019966;28;20023;-81
2022/07/23 02:46:53;;;;;;;14.25;9.73;;;25.30;96.60;;;;;;5019844;28;20018;-82
2022/07/23 02:49:19;;;;;;;13.18;9.15;;;25.30;96.70;;;;;;5020123;28;20026;-82
2022/07/23 02:51:47;;;;;;;15.70;9.75;;;25.30;96.90;;;;;;5020155;28;20028;-82
2022/07/23 02:54:13;;;;;;;16.13;10.25;;;25.30;97.40;;;;;;5019918;28;20034;-84
2022/07/23 02:56:39;;;;;;;13.65;9.77;;;25.30;97.60;;;;;;5018386;28;20070;-82
2022/07/23 02:59:05;;;;;;;15.52;9.90;;;25.20;97.80;;;;;;5020139;28;20034;-81
2022/07/23 03:01:31;;;;;;;15.30;10.00;;;25.20;98.20;;;;;;5018578;28;20070;-83
2022/07/23 03:03:57;;;;;;;13.95;10.18;;;25.10;98.40;;;;;;5019699;28;20030;-81
2022/07/23 03:06:23;;;;;;;18.08;9.65;;;25.00;98.60;;;;;;5018470;28;20031;-83
2022/07/23 03:08:49;;;;;;;13.30;10.02;;;25.00;98.80;;;;;;4998112;28;20122;-84
2022/07/23 03:11:15;;;;;;;13.73;10.02;;;25.00;99.20;;;;;;5014197;28;20027;-83
2022/07/23 03:13:41;;;;;;;12.18;9.70;;;25.00;99.10;;;;;;5014223;28;20034;-83
2022/07/23 03:16:07;;;;;;;15.65;10.40;;;24.90;99.10;;;;;;5015173;28;20030;-83
2022/07/23 03:18:35;;;;;;;15.02;10.75;;;25.00;99.20;;;;;;5017121;28;20049;-82
2022/07/23 03:21:01;;;;;;;15.57;9.52;;;24.90;99.20;;;;;;5018796;28;20011;-82
2022/07/23 03:23:27;;;;;;;16.17;9.63;;;24.90;99.60;;;;;;5019964;28;20018;-81
2022/07/23 03:25:53;;;;;;;15.23;9.88;;;24.90;99.70;;;;;;5019166;28;20090;-82
2022/07/23 03:28:19;;;;;;;17.98;10.43;;;24.90;99.70;;;;;;5020094;28;20022;-82
2022/07/23 03:30:46;;;;;;;14.90;9.27;;;25.00;99.70;;;;;;5020106;28;20018;-82
2022/07/23 03:33:13;;;;;;;18.02;10.05;;;25.00;99.60;;;;;;5019261;28;20030;-82
2022/07/23 03:35:39;;;;;;;14.73;10.07;;;25.00;99.40;;;;;;5032745;22;20526;-79
2022/07/23 03:38:31;;;;;;;15.20;9.50;;;25.10;99.40;;;;;;5000047;28;20081;-79
2022/07/23 03:40:57;;;;;;;18.27;10.57;;;25.10;99.50;;;;;;5007375;28;20019;-78
2022/07/23 03:43:25;;;;;;;15.57;10.20;;;25.10;99.70;;;;;;5005582;28;20030;-79
2022/07/23 03:45:51;;;;;;;12.95;9.73;;;25.10;99.90;;;;;;4972346;28;20062;-78
2022/07/23 03:48:18;;;;;;;16.02;9.93;;;25.00;99.90;;;;;;4987107;28;20030;-77
2022/07/23 03:50:44;;;;;;;19.48;9.18;;;25.00;99.90;;;;;;5006168;28;20045;-79
2022/07/23 03:53:10;;;;;;;17.75;9.35;;;25.00;99.90;;;;;;4987094;28;20027;-79
2022/07/23 03:55:36;;;;;;;16.98;10.02;;;25.00;99.90;;;;;;5002650;28;20027;-79
2022/07/23 03:58:02;;;;;;;12.98;9.95;;;25.00;99.90;;;;;;4980652;28;20022;-79
2022/07/23 04:00:28;;;;;;;15.35;9.93;;;25.00;99.90;;;;;;4984846;28;20057;-79
2022/07/23 04:02:54;;;;;;;15.60;10.25;;;25.00;99.90;;;;;;4984379;28;20106;-79
2022/07/23 04:05:19;;;;;;;13.85;9.38;;;25.00;99.90;;;;;;4981279;28;20490;-79
2022/07/23 04:07:49;;;;;;;19.95;9.65;;;25.00;99.90;;;;;;4986008;28;20684;-78
2022/07/23 04:10:15;;;;;;;14.45;9.77;;;25.00;99.90;;;;;;4990222;28;20062;-77
2022/07/23 04:12:42;;;;;;;15.68;10.30;;;25.00;99.90;;;;;;4988737;28;20022;-78
2022/07/23 04:15:09;;;;;;;16.92;9.80;;;25.00;99.90;;;;;;4999359;28;20388;-79
2022/07/23 04:17:35;;;;;;;13.93;10.00;;;25.00;99.90;;;;;;4987957;28;20023;-78
2022/07/23 04:20:02;;;;;;;11.90;9.60;;;25.00;99.90;;;;;;5016217;28;20041;-78
2022/07/23 04:22:34;;;;;;;18.20;10.27;;;25.00;99.90;;;;;;4994928;28;20471;-78
2022/07/23 04:24:59;;;;;;;15.27;9.55;;;25.00;99.90;;;;;;4990961;28;20038;-79
2022/07/23 04:27:25;;;;;;;11.73;9.80;;;25.00;99.90;;;;;;4992431;28;20057;-79
2022/07/23 04:29:51;;;;;;;14.07;9.95;;;25.00;99.90;;;;;;4992238;28;20026;-79
2022/07/23 04:32:17;;;;;;;16.08;9.88;;;25.00;99.90;;;;;;5018994;28;20086;-80
2022/07/23 04:34:43;;;;;;;12.70;9.45;;;25.10;99.90;;;;;;5000044;28;20039;-80
2022/07/23 04:37:08;;;;;;;17.10;10.20;;;25.20;99.90;;;;;;4997662;28;20026;-79
2022/07/23 04:39:35;;;;;;;12.02;9.23;;;25.20;99.90;;;;;;4996503;28;20050;-80
2022/07/23 04:42:01;;;;;;;13.77;9.30;;;25.30;99.90;;;;;;4982536;28;20019;-82
2022/07/23 04:44:29;;;;;;;18.00;10.10;;;25.40;99.70;;;;;;4996134;28;20138;-82
2022/07/23 04:46:55;;;;;;;14.10;10.43;;;25.50;99.40;;;;;;4986107;28;20034;-86
2022/07/23 04:49:23;;;;;;;12.43;9.63;;;25.50;99.60;;;;;;4982096;28;20033;-87
2022/07/23 04:51:48;;;;;;;15.10;9.55;;;25.60;99.60;;;;;;4993560;28;20610;-86
2022/07/23 04:54:14;;;;;;;13.52;9.15;;;25.60;99.20;;;;;;5003373;28;20403;-84
2022/07/23 04:56:40;;;;;;;18.63;10.35;;;25.60;99.10;;;;;;5022716;28;20026;-84
2022/07/23 04:59:06;;;;;;;14.40;9.20;;;25.70;99.10;;;;;;5021816;28;20017;-83
2022/07/23 05:01:32;;;;;;;12.00;9.90;;;25.70;99.10;;;;;;5005515;28;20017;-84
2022/07/23 05:03:58;;;;;;;14.55;9.70;;;25.80;98.80;;;;;;5021994;28;20034;-84
2022/07/23 05:06:27;;;;;;;13.70;9.80;;;25.80;99.00;;;;;;5002862;28;20171;-84
2022/07/23 05:08:55;;;;;;;15.35;9.55;;;25.70;98.70;;;;;;5002178;28;20022;-85
2022/07/23 05:11:21;;;;;;;15.35;9.90;;;25.50;98.90;;;;;;5002706;28;20091;-87
2022/07/23 05:13:47;;;;;;;13.88;9.98;;;25.50;99.20;;;;;;5002488;28;20490;-83
2022/07/23 05:16:13;;;;;;;12.70;9.02;;;25.50;99.50;;;;;;5000025;28;20030;-83
2022/07/23 05:18:39;;;;;;;16.42;9.18;;;25.70;99.50;;;;;;5002205;28;20030;-84
2022/07/23 05:21:05;;;;;;;21.13;10.65;;;25.90;99.20;;;;;;5007441;28;20105;-81
2022/07/23 05:23:31;;;;;;;15.98;9.98;;;26.00;98.60;;;;;;5010350;28;20033;-82
2022/07/23 05:25:56;;;;;;;15.00;9.43;;;26.20;98.20;;;;;;4994378;28;20029;-82
2022/07/23 05:28:24;;;;;;;12.77;9.45;;;26.30;98.20;;;;;;5006872;28;20414;-80
2022/07/23 05:30:52;;;;;;;12.00;9.18;;;26.30;98.20;;;;;;5011356;28;20398;-83
2022/07/23 05:33:19;;;;;;;16.23;10.15;;;26.50;98.00;;;;;;5010876;28;20026;-82
2022/07/23 05:35:45;;;;;;;17.00;10.35;;;26.50;97.70;;;;;;5010637;28;20034;-84
2022/07/23 05:38:20;;;;;;;13.93;10.25;;;26.60;97.50;;;;;;5009445;28;20073;-82
2022/07/23 05:40:48;;;;;;;11.70;9.30;;;26.60;97.30;;;;;;5010430;28;20045;-83
2022/07/23 05:43:13;;;;;;;18.48;9.63;;;26.90;96.60;;;;;;5016905;28;20026;-80
2022/07/23 05:45:39;;;;;;;10.70;8.50;;;27.40;96.20;;;;;;5035690;28;20038;-81
2022/07/23 05:48:05;;;;;;;10.55;8.40;;;27.80;94.50;;;;;;5002823;28;20034;-81
2022/07/23 05:50:38;;;;;;;12.45;8.10;;;28.10;93.60;;;;;;5021854;28;20022;-81
2022/07/23 05:53:20;;;;;;;12.50;8.38;;;28.30;92.90;;;;;;5022619;28;20042;-82
2022/07/23 05:55:58;;;;;;;11.30;8.38;;;28.40;92.60;;;;;;5017107;28;20030;-83
2022/07/23 05:58:24;;;;;;;16.63;8.98;;;28.50;92.30;;;;;;5015509;28;20033;-82
2022/07/23 06:00:50;;;;;;;10.52;7.53;;;28.60;92.00;;;;;;5017638;28;20026;-83
2022/07/23 06:03:16;;;;;;;13.93;8.23;;;28.50;91.90;;;;;;5016280;28;20057;-84
2022/07/23 06:05:42;;;;;;;14.93;8.93;;;28.40;91.90;;;;;;5014578;28;20037;-84
2022/07/23 06:08:08;;;;;;;31.02;20.52;;;28.60;92.00;;;;;;5012164;28;20030;-82
2022/07/23 06:10:34;;;;;;;15.05;8.77;;;28.70;91.90;;;;;;5012952;28;20049;-81
2022/07/23 06:13:00;;;;;;;12.52;9.77;;;28.70;92.20;;;;;;4997723;28;20034;-82
2022/07/23 06:15:26;;;;;;;13.95;9.40;;;28.60;92.40;;;;;;5014285;28;20175;-84
2022/07/23 06:17:52;;;;;;;12.93;9.48;;;28.50;92.60;;;;;;5011603;28;20041;-83
2022/07/23 06:20:18;;;;;;;12.52;9.45;;;28.50;92.70;;;;;;5011400;28;20022;-83
2022/07/23 06:22:44;;;;;;;10.90;9.13;;;28.20;93.10;;;;;;4995560;28;20041;-82
2022/07/23 06:25:11;;;;;;;13.00;8.68;;;28.10;93.50;;;;;;5029436;28;20442;-84
2022/07/23 06:27:37;;;;;;;10.68;9.20;;;28.10;93.60;;;;;;5032295;28;20037;-82
2022/07/23 06:30:03;;;;;;;14.27;10.35;;;28.20;93.40;;;;;;5015603;28;20030;-83
2022/07/23 06:32:29;;;;;;;16.38;9.65;;;28.50;93.30;;;;;;5015985;28;20044;-82
2022/07/23 06:34:54;;;;;;;12.02;8.82;;;28.60;93.20;;;;;;5015232;28;20121;-83
2022/07/23 06:37:20;;;;;;;15.52;8.93;;;28.60;93.20;;;;;;5033545;28;20045;-84
2022/07/23 06:39:46;;;;;;;16.15;8.52;;;28.50;93.20;;;;;;5015994;28;20085;-83
2022/07/23 06:42:13;;;;;;;13.65;8.73;;;28.50;93.30;;;;;;5015685;28;20469;-82
2022/07/23 06:44:43;;;;;;;14.02;8.05;;;28.50;92.90;;;;;;5016726;28;20025;-83
2022/07/23 06:47:09;;;;;;;12.32;7.65;;;28.60;92.70;;;;;;5014852;28;20034;-84
2022/07/23 06:49:35;;;;;;;12.20;7.88;;;28.70;92.30;;;;;;5014845;28;20036;-83
2022/07/23 06:52:01;;;;;;;11.98;7.65;;;28.70;92.10;;;;;;5032934;28;20034;-80
2022/07/23 06:54:27;;;;;;;10.50;7.07;;;28.80;91.90;;;;;;5014420;28;20034;-83
2022/07/23 06:56:52;;;;;;;13.02;7.38;;;28.90;91.70;;;;;;5032400;28;20052;-84
2022/07/23 06:59:18;;;;;;;19.08;7.53;;;28.90;91.50;;;;;;5031240;28;20444;-83
2022/07/23 07:01:44;;;;;;;13.45;6.85;;;29.00;91.30;;;;;;4999440;28;20097;-87
2022/07/23 07:04:10;;;;;;;11.65;6.47;;;29.00;90.90;;;;;;5016010;28;20038;-85
2022/07/23 07:06:36;;;;;;;11.98;7.22;;;29.20;90.50;;;;;;5032321;28;20026;-83
2022/07/23 07:09:01;;;;;;;13.65;6.65;;;29.30;90.20;;;;;;5031371;28;20033;-83
2022/07/23 07:11:27;;;;;;;10.52;6.55;;;29.40;89.50;;;;;;5008663;28;20044;-88
2022/07/23 07:13:53;;;;;;;15.85;6.10;;;29.50;89.40;;;;;;5023543;28;20030;-83
2022/07/23 07:16:19;;;;;;;10.18;5.40;;;29.50;87.00;;;;;;5022154;28;20121;-85
2022/07/23 07:18:45;;;;;;;6.97;5.13;;;29.60;86.10;;;;;;5022699;28;20032;-83
2022/07/23 07:21:10;;;;;;;10.10;5.38;;;29.60;85.20;;;;;;5025503;28;20034;-89
2022/07/23 07:23:36;;;;;;;19.05;5.53;;;29.70;84.90;;;;;;5005032;28;20033;-82
2022/07/23 07:26:02;;;;;;;12.77;5.28;;;29.70;83.70;;;;;;5021302;28;20033;-84
2022/07/23 07:28:28;;;;;;;22.70;5.40;;;29.70;83.60;;;;;;5025668;28;20609;-83
2022/07/23 07:30:54;;;;;;;15.10;4.78;;;29.80;82.80;;;;;;5009960;28;20029;-83
2022/07/23 07:33:20;;;;;;;19.35;5.05;;;29.80;82.80;;;;;;5023671;28;20084;-84
2022/07/23 07:35:46;;;;;;;12.15;5.05;;;29.90;82.40;;;;;;5023369;28;20392;-84
2022/07/23 07:38:12;;;;;;;16.10;5.57;;;30.00;81.90;;;;;;5021863;28;20041;-86
2022/07/23 07:40:38;;;;;;;7.22;4.65;;;30.00;81.80;;;;;;5005008;28;20036;-85
2022/07/23 07:43:04;;;;;;;8.43;4.63;;;30.00;80.70;;;;;;5023618;28;20014;-86
2022/07/23 07:45:30;;;;;;;8.05;4.45;;;30.00;80.30;;;;;;5023285;28;20066;-84
2022/07/23 07:47:57;;;;;;;7.13;3.97;;;30.10;80.30;;;;;;5023147;28;20088;-82
2022/07/23 07:50:23;;;;;;;6.85;4.20;;;30.10;79.70;;;;;;5013126;28;20029;-83
2022/07/23 07:52:48;;;;;;;6.60;4.35;;;30.20;79.60;;;;;;5035714;28;20021;-82
2022/07/23 07:55:14;;;;;;;7.93;4.47;;;30.20;80.00;;;;;;5034794;28;20038;-83
2022/07/23 07:57:40;;;;;;;14.25;4.80;;;30.30;79.80;;;;;;5036231;28;20022;-83
2022/07/23 08:00:10;;;;;;;6.05;4.13;;;30.40;79.80;;;;;;5021891;28;20068;-81
2022/07/23 08:02:53;;;;;;;18.13;5.20;;;30.50;79.20;;;;;;5038779;28;20036;-81
2022/07/23 08:05:21;;;;;;;6.95;4.22;;;30.50;78.40;;;;;;5021266;28;20042;-83
2022/07/23 08:07:47;;;;;;;9.55;4.50;;;30.70;78.00;;;;;;5037151;28;20030;-84
2022/07/23 08:10:13;;;;;;;8.02;4.57;;;30.70;78.10;;;;;;5036140;28;20092;-83
2022/07/23 08:12:44;;;;;;;11.88;5.03;;;30.70;77.80;;;;;;5016862;28;20036;-83
2022/07/23 08:15:11;;;;;;;9.40;4.20;;;31.00;77.50;;;;;;5034862;28;20034;-83
2022/07/23 08:17:37;;;;;;;8.07;4.95;;;31.10;77.00;;;;;;5011428;28;20026;-82
2022/07/23 08:20:05;;;;;;;15.68;5.57;;;31.20;76.70;;;;;;5029241;28;20037;-83
2022/07/23 08:22:51;;;;;;;14.20;5.43;;;31.30;76.60;;;;;;5011809;28;20022;-86
2022/07/23 08:25:25;;;;;;;9.63;4.82;;;31.50;76.20;;;;;;5023064;28;20038;-82
2022/07/23 08:27:51;;;;;;;8.25;5.20;;;31.70;76.20;;;;;;5021723;28;20183;-84
2022/07/23 08:30:18;;;;;;;7.97;5.10;;;31.80;75.90;;;;;;5003272;28;20037;-84
2022/07/23 08:32:57;;;;;;;8.82;5.40;;;31.90;75.00;;;;;;5021687;28;20041;-84
2022/07/23 08:35:25;;;;;;;7.13;4.82;;;31.90;75.20;;;;;;5032829;28;20048;-83
2022/07/23 08:37:51;;;;;;;8.55;6.43;;;32.10;74.40;;;;;;5034549;28;20014;-83
2022/07/23 08:40:18;;;;;;;6.00;4.90;;;31.90;74.20;;;;;;5029628;28;20034;-83
2022/07/23 08:42:46;;;;;;;6.00;4.93;;;31.70;73.50;;;;;;5014049;28;20076;-82
2022/07/23 08:45:15;;;;;;;8.25;5.20;;;31.70;74.00;;;;;;5031948;28;20048;-83
2022/07/23 08:47:41;;;;;;;7.30;4.85;;;31.60;74.20;;;;;;5007266;28;20026;-83
2022/07/23 08:50:08;;;;;;;6.90;4.40;;;31.70;73.90;;;;;;5021357;28;20030;-82
2022/07/23 08:52:35;;;;;;;5.68;4.72;;;31.80;73.50;;;;;;5003124;28;20038;-85
2022/07/23 08:55:01;;;;;;;14.90;4.70;;;31.90;72.80;;;;;;5001626;28;20052;-84
2022/07/23 08:57:27;;;;;;;6.68;4.70;;;31.90;72.40;;;;;;5020686;28;20030;-83
2022/07/23 08:59:53;;;;;;;5.82;5.22;;;31.90;72.70;;;;;;5021921;28;20054;-84
2022/07/23 09:02:18;;;;;;;8.70;4.80;;;32.00;72.50;;;;;;5031569;28;20084;-83
2022/07/23 09:04:44;;;;;;;6.60;4.80;;;32.20;72.10;;;;;;5015969;28;20493;-84
2022/07/23 09:07:10;;;;;;;7.60;5.15;;;32.40;71.70;;;;;;5025541;28;20033;-84
2022/07/23 09:09:36;;;;;;;7.15;4.90;;;32.40;71.50;;;;;;5025772;28;20034;-83
2022/07/23 09:12:07;;;;;;;6.13;5.00;;;32.60;71.00;;;;;;5022851;28;20037;-84
2022/07/23 09:14:44;;;;;;;6.10;4.93;;;32.40;71.10;;;;;;5024014;28;20472;-84
2022/07/23 09:17:16;;;;;;;7.80;5.22;;;32.60;70.90;;;;;;5024139;28;20032;-83
2022/07/23 09:19:43;;;;;;;11.18;5.60;;;32.70;70.40;;;;;;5024635;28;20060;-85
2022/07/23 09:22:21;;;;;;;11.25;5.05;;;32.60;71.20;;;;;;5028930;28;20029;-85
2022/07/23 09:25:07;;;;;;;9.48;5.22;;;32.50;71.60;;;;;;5026914;28;20030;-83
2022/07/23 09:27:54;;;;;;;7.70;5.53;;;32.40;72.00;;;;;;5025643;28;20056;-83
2022/07/23 09:30:29;;;;;;;5.90;5.25;;;32.40;71.50;;;;;;5026226;28;20048;-84
2022/07/23 09:33:05;;;;;;;8.15;5.47;;;32.50;71.60;;;;;;5010485;28;20034;-85
2022/07/23 09:35:50;;;;;;;7.78;5.30;;;32.60;71.60;;;;;;5059611;22;20038;-85
2022/07/23 09:38:16;;;;;;;7.10;5.47;;;32.70;71.50;;;;;;5014168;28;20018;-86
2022/07/23 09:40:44;;;;;;;5.90;5.30;;;32.80;71.30;;;;;;5008327;28;20022;-85
2022/07/23 09:43:10;;;;;;;7.15;5.30;;;33.00;70.40;;;;;;4992219;28;20066;-85
2022/07/23 09:45:39;;;;;;;5.55;4.47;;;33.20;70.10;;;;;;5008599;28;20038;-86
2022/07/23 09:48:12;;;;;;;9.45;5.25;;;33.40;69.60;;;;;;4993312;28;20042;-86
2022/07/23 09:50:39;;;;;;;7.25;5.18;;;33.70;69.10;;;;;;4995252;28;20031;-87
2022/07/23 09:53:05;;;;;;;7.75;5.05;;;33.80;68.90;;;;;;4999869;28;20030;-85
2022/07/23 09:55:36;;;;;;;8.63;5.50;;;34.10;68.70;;;;;;5013908;28;20057;-86
2022/07/23 09:58:04;;;;;;;7.35;5.18;;;34.60;67.50;;;;;;5013496;28;20049;-87
2022/07/23 10:00:31;;;;;;;11.05;5.28;;;34.90;67.10;;;;;;4980265;28;20022;-86
2022/07/23 10:02:58;;;;;;;12.30;5.88;;;34.40;67.40;;;;;;4993412;28;20038;-85
2022/07/23 10:05:28;;;;;;;6.75;5.28;;;34.80;67.50;;;;;;4993590;28;20025;-87
2022/07/23 10:08:02;;;;;;;7.00;6.15;;;35.40;67.10;;;;;;5006701;28;20039;-85
2022/07/23 10:11:07;;;;;;;7.60;6.13;;;35.20;66.60;;;;;;4966325;29;20031;-87
2022/07/23 10:13:56;;;;;;;10.18;5.80;;;34.30;67.90;;;;;;4958303;29;20058;-86
2022/07/23 10:16:32;;;;;;;8.50;5.70;;;35.10;67.20;;;;;;4984988;28;20026;-88
2022/07/23 10:18:59;;;;;;;6.63;5.75;;;35.80;65.70;;;;;;4981502;28;20093;-86
2022/07/23 10:21:39;;;;;;;5.82;5.22;;;35.80;65.60;;;;;;4993623;28;20026;-88
2022/07/23 10:24:20;;;;;;;8.27;5.03;;;36.90;63.60;;;;;;4994871;28;20054;-87
2022/07/23 10:27:11;;;;;;;8.05;4.75;;;38.60;61.10;;;;;;4993467;28;20081;-87
2022/07/23 10:30:04;;;;;;;6.68;5.00;;;40.40;57.90;;;;;;5001787;28;20056;-86
2022/07/23 10:32:51;;;;;;;9.32;5.50;;;40.20;56.50;;;;;;4992155;28;20498;-86
2022/07/23 10:35:37;;;;;;;10.98;5.53;;;41.00;56.30;;;;;;4993088;28;20050;-87
2022/07/23 10:38:13;;;;;;;9.15;5.57;;;41.80;54.80;;;;;;4997276;28;20034;-86
2022/07/23 10:40:59;;;;;;;9.40;6.10;;;41.80;55.00;;;;;;4996568;28;20094;-87
2022/07/23 10:43:26;;;;;;;10.05;6.00;;;41.40;55.30;;;;;;5012398;28;20187;-88
2022/07/23 10:45:53;;;;;;;7.10;6.03;;;41.60;55.30;;;;;;5015161;28;20090;-85
2022/07/23 10:48:21;;;;;;;11.05;6.93;;;40.90;55.30;;;;;;5014930;28;20487;-86
2022/07/23 10:51:13;;;;;;;9.93;5.68;;;40.30;56.10;;;;;;5014480;28;20019;-86
2022/07/23 10:53:51;;;;;;;9.70;6.30;;;40.60;56.00;;;;;;5014409;28;20110;-89
2022/07/23 10:56:54;;;;;;;7.78;6.03;;;41.00;55.20;;;;;;5011618;28;20054;-87
2022/07/23 10:59:23;;;;;;;7.40;5.80;;;40.80;55.80;;;;;;4992590;28;20084;-86
2022/07/23 11:01:50;;;;;;;9.85;6.03;;;40.30;55.50;;;;;;4992674;28;20052;-87
2022/07/23 11:04:16;;;;;;;8.50;6.18;;;40.20;55.70;;;;;;4993924;28;20108;-86
2022/07/23 11:06:50;;;;;;;7.60;5.65;;;38.70;56.70;;;;;;4980901;28;20035;-87
2022/07/23 11:09:30;;;;;;;8.93;6.18;;;38.40;56.70;;;;;;5013898;28;20028;-87
2022/07/23 11:12:14;;;;;;;14.20;6.00;;;38.60;56.40;;;;;;5012267;28;20126;-86
2022/07/23 11:15:04;;;;;;;8.98;5.90;;;38.70;56.30;;;;;;5011243;28;20057;-88
2022/07/23 11:17:33;;;;;;;8.57;6.55;;;38.60;56.60;;;;;;4991424;28;20073;-87
2022/07/23 11:20:11;;;;;;;8.25;5.75;;;38.10;57.50;;;;;;5010613;28;20041;-86
2022/07/23 11:22:51;;;;;;;10.18;6.80;;;37.80;58.30;;;;;;4992647;28;20034;-87
2022/07/23 11:25:29;;;;;;;7.53;6.40;;;37.80;58.60;;;;;;5009738;28;20084;-86
2022/07/23 11:28:07;;;;;;;8.63;6.70;;;37.70;58.80;;;;;;5009098;28;20026;-85
2022/07/23 11:30:38;;;;;;;7.43;6.35;;;38.00;58.50;;;;;;4994026;28;20049;-86
2022/07/23 11:33:07;;;;;;;6.75;6.10;;;38.00;58.70;;;;;;5012816;28;20033;-87
2022/07/23 11:35:34;;;;;;;7.57;6.72;;;38.40;58.40;;;;;;4996409;28;20073;-88
2022/07/23 11:38:21;;;;;;;8.23;6.90;;;39.00;57.70;;;;;;4997363;28;20058;-87
2022/07/23 11:40:57;;;;;;;9.90;6.45;;;40.10;56.70;;;;;;4998873;28;20034;-87
2022/07/23 11:43:23;;;;;;;9.45;6.60;;;41.40;55.50;;;;;;5017231;28;20097;-87
2022/07/23 11:45:59;;;;;;;7.18;6.40;;;42.60;54.30;;;;;;5000804;28;20038;-86
2022/07/23 11:48:30;;;;;;;10.60;6.57;;;43.60;53.20;;;;;;4998352;28;20033;-87
2022/07/23 11:50:58;;;;;;;8.88;6.00;;;44.00;52.50;;;;;;5012610;28;20094;-87
2022/07/23 11:53:33;;;;;;;7.47;6.13;;;43.80;52.40;;;;;;4994588;28;20057;-87
2022/07/23 11:56:10;;;;;;;6.30;5.70;;;43.50;52.60;;;;;;4993635;28;20030;-86
2022/07/23 11:58:37;;;;;;;8.38;6.57;;;42.80;52.90;;;;;;5010349;28;20101;-89
2022/07/23 12:01:04;;;;;;;9.18;6.68;;;41.90;53.80;;;;;;5009160;28;20377;-88
2022/07/23 12:03:30;;;;;;;13.07;6.57;;;40.90;54.80;;;;;;4992457;28;20102;-87
2022/07/23 12:05:57;;;;;;;9.48;7.15;;;40.50;55.40;;;;;;5010332;28;20019;-87
2022/07/23 12:08:23;;;;;;;9.98;7.03;;;40.70;56.10;;;;;;5009888;28;20077;-87
2022/07/23 12:10:49;;;;;;;8.60;6.72;;;40.70;55.30;;;;;;4991217;28;20109;-87
2022/07/23 12:13:17;;;;;;;7.45;6.55;;;41.10;54.80;;;;;;5008544;28;20256;-87
2022/07/23 12:15:56;;;;;;;9.70;7.15;;;41.00;54.60;;;;;;5008634;28;20042;-85
2022/07/23 12:18:26;;;;;;;11.23;6.30;;;40.60;54.80;;;;;;5008106;28;20036;-88
2022/07/23 12:20:56;;;;;;;9.18;6.60;;;39.90;55.50;;;;;;4991552;28;20022;-86
2022/07/23 12:23:24;;;;;;;8.25;6.25;;;39.50;55.70;;;;;;5007576;28;20065;-86
2022/07/23 12:25:51;;;;;;;8.98;7.10;;;38.90;56.30;;;;;;4991164;28;20485;-86
2022/07/23 12:28:20;;;;;;;8.00;6.70;;;38.00;57.20;;;;;;5007997;28;20084;-87
2022/07/23 12:30:51;;;;;;;10.55;7.28;;;37.20;58.00;;;;;;4992749;28;20090;-88
2022/07/23 12:33:27;;;;;;;10.13;6.53;;;37.00;58.50;;;;;;4990516;28;20030;-87
2022/07/23 12:35:55;;;;;;;9.50;6.20;;;36.70;58.80;;;;;;4975919;28;20045;-89
2022/07/23 12:38:23;;;;;;;10.65;6.40;;;36.60;58.80;;;;;;4974270;28;20022;-88
2022/07/23 12:40:50;;;;;;;11.77;6.60;;;36.30;58.70;;;;;;4995321;28;20030;-86
2022/07/23 12:43:26;;;;;;;7.85;6.28;;;35.90;59.00;;;;;;4995443;28;20034;-85
2022/07/23 12:45:53;;;;;;;7.68;5.93;;;35.30;59.50;;;;;;4996321;28;20049;-87